createdAt,value
2019-05-10T00:00:37.598Z,89.50
2019-05-10T00:03:25.736Z,89.30
2019-05-10T00:06:13.265Z,90.00
2019-05-10T00:08:47.545Z,89.30
2019-05-10T00:11:36.648Z,89.10
2019-05-10T00:14:26.007Z,89.50
2019-05-10T00:16:57.369Z,89.30
2019-05-10T00:19:27.076Z,89.30
2019-05-10T00:21:56.888Z,89.60
2019-05-10T00:24:26.602Z,89.10
2019-05-10T00:26:56.308Z,89.30
2019-05-10T00:29:25.920Z,89.70
2019-05-10T00:31:55.627Z,89.60
2019-05-10T00:34:25.339Z,89.60
2019-05-10T00:36:54.957Z,89.50
2019-05-10T00:39:24.650Z,89.40
2019-05-10T00:41:55.281Z,89.40
2019-05-10T00:44:24.791Z,89.30
2019-05-10T00:46:54.082Z,89.00
2019-05-10T00:49:23.797Z,89.00
2019-05-10T00:51:53.051Z,89.10
2019-05-10T00:54:22.823Z,89.10
2019-05-10T00:56:52.513Z,89.10
2019-05-10T00:59:21.861Z,89.10
2019-05-10T01:01:51.438Z,90.10
2019-05-10T01:04:20.784Z,89.40
2019-05-10T01:06:50.532Z,89.50
2019-05-10T01:09:20.149Z,89.90
2019-05-10T01:11:49.858Z,90.00
2019-05-10T01:14:19.572Z,89.70
2019-05-10T01:16:49.175Z,90.20
2019-05-10T01:19:18.989Z,90.40
2019-05-10T01:21:48.698Z,90.20
2019-05-10T01:24:18.400Z,90.20
2019-05-10T01:26:48.030Z,90.10
2019-05-10T01:29:17.622Z,90.00
2019-05-10T01:31:47.755Z,90.30
2019-05-10T01:34:17.565Z,90.20
2019-05-10T01:36:47.261Z,90.20
2019-05-10T01:39:16.890Z,90.10
2019-05-10T01:41:46.584Z,90.10
2019-05-10T01:44:16.309Z,90.10
2019-05-10T01:46:45.703Z,90.20
2019-05-10T01:49:16.437Z,90.20
2019-05-10T01:51:45.787Z,90.40
2019-05-10T01:54:15.046Z,90.50
2019-05-10T01:56:44.734Z,90.40
2019-05-10T01:59:14.345Z,90.50
2019-05-10T02:01:43.553Z,90.50
2019-05-10T02:04:17.230Z,90.40
2019-05-10T02:06:44.647Z,90.40
2019-05-10T02:09:14.344Z,90.40
2019-05-10T02:11:44.137Z,90.20
2019-05-10T02:14:13.735Z,90.30
2019-05-10T02:16:43.651Z,90.20
2019-05-10T02:19:13.261Z,90.10
2019-05-10T02:21:42.973Z,90.10
2019-05-10T02:24:12.573Z,90.10
2019-05-10T02:26:42.182Z,90.20
2019-05-10T02:29:11.893Z,90.00
2019-05-10T02:31:41.599Z,90.00
2019-05-10T02:34:10.778Z,90.00
2019-05-10T02:36:40.618Z,90.20
2019-05-10T02:39:10.321Z,90.20
2019-05-10T02:41:39.941Z,90.20
2019-05-10T02:44:09.640Z,90.30
2019-05-10T02:46:39.058Z,90.40
2019-05-10T02:49:08.408Z,90.40
2019-05-10T02:51:38.076Z,90.60
2019-05-10T02:54:07.761Z,90.50
2019-05-10T02:56:37.369Z,90.60
2019-05-10T02:59:06.686Z,90.50
2019-05-10T03:01:36.585Z,90.50
2019-05-10T03:04:05.814Z,90.40
2019-05-10T03:06:35.511Z,90.40
2019-05-10T03:09:06.825Z,90.30
2019-05-10T03:11:47.249Z,90.30
2019-05-10T03:14:18.767Z,90.40
2019-05-10T03:16:51.610Z,90.20
2019-05-10T03:19:21.565Z,90.00
2019-05-10T03:22:05.503Z,90.20
2019-05-10T03:24:35.100Z,90.00
2019-05-10T03:27:04.713Z,90.10
2019-05-10T03:29:34.203Z,90.30
2019-05-10T03:32:03.865Z,90.50
2019-05-10T03:34:33.449Z,90.40
2019-05-10T03:37:03.246Z,90.70
2019-05-10T03:39:32.972Z,90.80
2019-05-10T03:42:02.870Z,90.60
2019-05-10T03:44:32.313Z,90.80
2019-05-10T03:47:02.206Z,90.80
2019-05-10T03:49:32.009Z,90.60
2019-05-10T03:52:01.706Z,90.60
2019-05-10T03:54:31.422Z,90.60
2019-05-10T03:57:13.194Z,90.80
2019-05-10T03:59:32.415Z,91.10
2019-05-10T04:02:02.096Z,91.00
2019-05-10T04:04:31.798Z,90.80
2019-05-10T04:07:01.402Z,90.80
2019-05-10T04:09:30.827Z,90.90
2019-05-10T04:12:00.517Z,90.90
2019-05-10T04:14:29.978Z,90.60
2019-05-10T04:16:59.630Z,90.40
2019-05-10T04:19:29.333Z,90.30
2019-05-10T04:21:58.952Z,90.60
2019-05-10T04:24:28.659Z,90.50
2019-05-10T04:26:58.371Z,90.70
2019-05-10T04:29:28.200Z,90.20
2019-05-10T04:31:57.839Z,90.20
2019-05-10T04:34:27.501Z,90.40
2019-05-10T04:36:57.310Z,90.20
2019-05-10T04:39:26.919Z,90.10
2019-05-10T04:41:56.523Z,89.80
2019-05-10T04:44:26.337Z,89.40
2019-05-10T04:46:56.044Z,89.00
2019-05-10T04:49:25.653Z,88.70
2019-05-10T04:51:55.484Z,88.60
2019-05-10T04:54:25.277Z,87.90
2019-05-10T04:56:55.090Z,88.00
2019-05-10T04:59:24.906Z,88.50
2019-05-10T05:01:54.635Z,88.30
2019-05-10T05:04:24.325Z,88.10
2019-05-10T05:06:53.927Z,87.40
2019-05-10T05:09:23.142Z,86.80
2019-05-10T05:11:52.488Z,86.30
2019-05-10T05:14:22.343Z,86.20
2019-05-10T05:16:51.957Z,86.00
2019-05-10T05:19:22.210Z,86.50
2019-05-10T05:21:52.302Z,86.30
2019-05-10T05:24:22.871Z,86.70
2019-05-10T05:26:54.266Z,86.90
2019-05-10T05:29:23.677Z,86.90
2019-05-10T05:31:54.075Z,86.60
2019-05-10T05:34:24.942Z,86.80
2019-05-10T05:36:54.650Z,86.50
2019-05-10T05:39:25.710Z,86.90
2019-05-10T05:41:56.691Z,85.50
2019-05-10T05:44:27.902Z,85.80
2019-05-10T05:46:58.489Z,85.00
2019-05-10T05:49:27.891Z,84.70
2019-05-10T05:51:57.926Z,84.90
2019-05-10T05:54:27.741Z,84.70
2019-05-10T05:56:57.025Z,85.80
2019-05-10T05:59:26.429Z,86.50
2019-05-10T06:02:00.853Z,85.80
2019-05-10T06:04:28.631Z,85.40
2019-05-10T06:07:00.609Z,85.50
2019-05-10T06:09:32.133Z,85.70
2019-05-10T06:12:01.476Z,85.90
2019-05-10T06:14:31.347Z,85.90
2019-05-10T06:17:00.721Z,84.40
2019-05-10T06:19:30.767Z,84.30
2019-05-10T06:22:04.756Z,83.70
2019-05-10T06:24:34.409Z,84.50
2019-05-10T06:27:05.086Z,84.40
2019-05-10T06:29:35.387Z,84.10
2019-05-10T06:32:05.072Z,84.30
2019-05-10T06:34:38.993Z,83.20
2019-05-10T06:37:05.817Z,82.30
2019-05-10T06:39:35.433Z,80.80
2019-05-10T06:42:05.129Z,80.70
2019-05-10T06:44:35.045Z,80.50
2019-05-10T06:47:08.353Z,80.70
2019-05-10T06:49:41.048Z,79.90
2019-05-10T06:52:09.648Z,79.90
2019-05-10T06:54:40.758Z,77.80
2019-05-10T06:57:11.083Z,77.20
2019-05-10T06:59:41.648Z,77.40
2019-05-10T07:02:11.257Z,75.70
2019-05-10T07:04:41.444Z,75.40
2019-05-10T07:07:22.267Z,75.00
2019-05-10T07:12:15.177Z,74.30
2019-05-10T07:14:46.146Z,73.90
2019-05-10T07:17:16.290Z,74.30
2019-05-10T07:19:53.806Z,74.50
2019-05-10T07:22:21.816Z,73.80
2019-05-10T07:24:47.852Z,73.20
2019-05-10T07:27:17.419Z,72.90
2019-05-10T07:29:47.881Z,71.70
2019-05-10T07:32:22.278Z,70.90
2019-05-10T07:34:58.307Z,69.90
2019-05-10T07:37:19.725Z,69.60
2019-05-10T07:39:49.253Z,65.30
2019-05-10T07:42:18.936Z,64.40
2019-05-10T07:44:48.832Z,63.80
2019-05-10T07:47:23.753Z,64.70
2019-05-10T07:49:50.136Z,64.40
2019-05-10T07:52:19.950Z,66.80
2019-05-10T07:54:49.761Z,65.40
2019-05-10T07:57:24.661Z,62.60
2019-05-10T07:59:51.405Z,62.60
2019-05-10T08:02:22.168Z,65.40
2019-05-10T08:04:53.636Z,65.40
2019-05-10T08:07:22.918Z,65.00
2019-05-10T08:09:52.634Z,61.00
2019-05-10T08:12:22.345Z,60.30
2019-05-10T08:14:53.553Z,59.90
2019-05-10T08:17:23.089Z,60.70
2019-05-10T08:19:52.731Z,61.80
2019-05-10T08:22:22.948Z,62.70
2019-05-10T08:27:55.041Z,59.20
2019-05-10T08:30:42.591Z,58.80
2019-05-10T08:33:09.630Z,60.00
2019-05-10T08:35:43.375Z,59.00
2019-05-10T08:38:12.961Z,58.50
2019-05-10T08:40:43.038Z,56.90
2019-05-10T08:43:16.638Z,56.50
2019-05-10T08:45:49.404Z,54.20
2019-05-10T08:48:17.449Z,54.40
2019-05-10T08:50:55.888Z,56.90
2019-05-10T08:53:18.510Z,56.30
2019-05-10T08:55:48.309Z,56.30
2019-05-10T09:01:16.300Z,55.30
2019-05-10T09:03:35.776Z,56.00
2019-05-10T09:06:11.671Z,55.80
2019-05-10T09:08:36.743Z,56.00
2019-05-10T09:11:07.074Z,56.60
2019-05-10T09:13:40.871Z,55.60
2019-05-10T09:16:07.533Z,56.40
2019-05-10T09:18:38.217Z,55.00
2019-05-10T09:21:11.569Z,55.50
2019-05-10T09:23:42.672Z,54.50
2019-05-10T09:26:16.169Z,53.90
2019-05-10T09:28:47.624Z,55.10
2019-05-10T09:31:22.008Z,52.90
2019-05-10T09:33:49.631Z,52.90
2019-05-10T09:36:16.449Z,54.40
2019-05-10T09:38:46.467Z,54.30
2019-05-10T09:41:16.193Z,54.70
2019-05-10T09:43:49.201Z,54.90
2019-05-10T09:46:17.149Z,54.50
2019-05-10T09:48:46.710Z,54.90
2019-05-10T09:51:19.144Z,54.80
2019-05-10T09:53:48.496Z,54.80
2019-05-10T09:56:17.970Z,56.10
2019-05-10T09:58:48.227Z,55.40
2019-05-10T10:01:21.628Z,56.60
2019-05-10T10:03:49.710Z,56.10
2019-05-10T10:06:19.343Z,56.90
2019-05-10T10:08:53.324Z,55.80
2019-05-10T10:11:20.425Z,56.30
2019-05-10T10:13:58.602Z,56.50
2019-05-10T10:16:21.225Z,57.20
2019-05-10T10:18:50.929Z,57.40
2019-05-10T10:21:30.495Z,56.90
2019-05-10T10:23:52.198Z,55.60
2019-05-10T10:26:22.507Z,54.60
2019-05-10T10:28:55.022Z,53.90
2019-05-10T10:31:29.639Z,53.90
2019-05-10T10:34:02.699Z,55.90
2019-05-10T10:36:27.425Z,54.50
2019-05-10T10:38:57.338Z,53.00
2019-05-10T10:41:31.495Z,52.80
2019-05-10T10:43:58.556Z,52.70
2019-05-10T10:46:28.342Z,52.50
2019-05-10T10:48:59.034Z,51.00
2019-05-10T10:51:32.341Z,53.00
2019-05-10T10:53:59.662Z,51.80
2019-05-10T10:56:29.291Z,51.90
2019-05-10T10:58:59.097Z,53.50
2019-05-10T11:01:45.700Z,53.20
2019-05-10T11:04:03.626Z,52.10
2019-05-10T11:06:31.815Z,55.10
2019-05-10T11:09:01.859Z,58.60
2019-05-10T11:11:38.777Z,63.80
2019-05-10T11:14:07.341Z,64.50
2019-05-10T11:16:35.263Z,66.30
2019-05-10T11:19:13.332Z,68.80
2019-05-10T11:21:35.906Z,65.80
